sensor_id;sensor_type;location;lat;lon;timestamp;pressure;altitude;pressure_sealevel;temperature;humidity
28008;BME280;15333;50.010;20.020;2022-09-13T00:02:46;98676.47;;;10.38;100.00
28008;BME280;15333;50.010;20.020;2022-09-13T00:05:47;98676.03;;;10.44;100.00
28008;BME280;15333;50.010;20.020;2022-09-13T00:08:48;98678.69;;;10.44;100.00
28008;BME280;15333;50.010;20.020;2022-09-13T00:11:50;98673.56;;;10.41;100.00
28008;BME280;15333;50.010;20.020;2022-09-13T00:14:51;98669.94;;;10.42;100.00
28008;BME280;15333;50.010;20.020;2022-09-13T00:17:52;98673.78;;;10.38;100.00
28008;BME280;15333;50.010;20.020;2022-09-13T00:21:03;98674.78;;;10.37;100.00
28008;BME280;15333;50.010;20.020;2022-09-13T00:24:04;98662.50;;;10.35;100.00
28008;BME280;15333;50.010;20.020;2022-09-13T00:27:05;98663.56;;;10.32;100.00
28008;BME280;15333;50.010;20.020;2022-09-13T00:30:07;98668.16;;;10.30;100.00
28008;BME280;15333;50.010;20.020;2022-09-13T00:33:10;98667.94;;;10.33;100.00
28008;BME280;15333;50.010;20.020;2022-09-13T00:36:20;98662.59;;;10.33;100.00
28008;BME280;15333;50.010;20.020;2022-09-13T00:39:21;98657.88;;;10.37;100.00
28008;BME280;15333;50.010;20.020;2022-09-13T00:42:27;98655.53;;;10.32;100.00
28008;BME280;15333;50.010;20.020;2022-09-13T00:45:28;98649.97;;;10.35;100.00
28008;BME280;15333;50.010;20.020;2022-09-13T00:48:29;98646.94;;;10.40;100.00
28008;BME280;15333;50.010;20.020;2022-09-13T00:51:30;98646.31;;;10.36;100.00
28008;BME280;15333;50.010;20.020;2022-09-13T00:54:39;98657.50;;;10.41;100.00
28008;BME280;15333;50.010;20.020;2022-09-13T00:57:42;98649.88;;;10.48;100.00
28008;BME280;15333;50.010;20.020;2022-09-13T01:00:44;98645.59;;;10.45;100.00
28008;BME280;15333;50.010;20.020;2022-09-13T01:03:45;98644.38;;;10.38;100.00
28008;BME280;15333;50.010;20.020;2022-09-13T01:06:47;98646.81;;;10.41;100.00
28008;BME280;15333;50.010;20.020;2022-09-13T01:09:51;98646.31;;;10.36;100.00
28008;BME280;15333;50.010;20.020;2022-09-13T01:12:57;98641.69;;;10.38;100.00
28008;BME280;15333;50.010;20.020;2022-09-13T01:16:00;98636.22;;;10.40;100.00
28008;BME280;15333;50.010;20.020;2022-09-13T01:19:01;98633.22;;;10.44;100.00
28008;BME280;15333;50.010;20.020;2022-09-13T01:22:22;98639.53;;;10.43;100.00
28008;BME280;15333;50.010;20.020;2022-09-13T01:29:44;98637.34;;;10.37;100.00
28008;BME280;15333;50.010;20.020;2022-09-13T01:33:24;98636.94;;;10.31;100.00
28008;BME280;15333;50.010;20.020;2022-09-13T01:39:52;98635.84;;;10.33;100.00
28008;BME280;15333;50.010;20.020;2022-09-13T01:43:19;98643.59;;;10.25;100.00
28008;BME280;15333;50.010;20.020;2022-09-13T01:46:51;98640.19;;;10.23;100.00
28008;BME280;15333;50.010;20.020;2022-09-13T01:50:21;98646.00;;;10.17;100.00
28008;BME280;15333;50.010;20.020;2022-09-13T01:53:27;98642.81;;;10.12;100.00
28008;BME280;15333;50.010;20.020;2022-09-13T02:03:19;98639.16;;;10.13;100.00
28008;BME280;15333;50.010;20.020;2022-09-13T02:06:27;98630.66;;;10.08;100.00
28008;BME280;15333;50.010;20.020;2022-09-13T02:09:34;98634.28;;;10.07;100.00
28008;BME280;15333;50.010;20.020;2022-09-13T02:12:41;98631.09;;;10.02;100.00
28008;BME280;15333;50.010;20.020;2022-09-13T02:15:45;98627.72;;;10.00;100.00
28008;BME280;15333;50.010;20.020;2022-09-13T02:18:50;98619.91;;;9.97;100.00
28008;BME280;15333;50.010;20.020;2022-09-13T02:21:58;98614.66;;;9.95;100.00
28008;BME280;15333;50.010;20.020;2022-09-13T02:25:13;98607.97;;;9.90;100.00
28008;BME280;15333;50.010;20.020;2022-09-13T02:28:20;98611.38;;;9.92;100.00
28008;BME280;15333;50.010;20.020;2022-09-13T02:31:29;98607.75;;;9.93;100.00
28008;BME280;15333;50.010;20.020;2022-09-13T02:34:41;98605.31;;;9.90;100.00
28008;BME280;15333;50.010;20.020;2022-09-13T02:37:52;98602.88;;;9.87;100.00
28008;BME280;15333;50.010;20.020;2022-09-13T02:41:04;98603.84;;;9.86;100.00
28008;BME280;15333;50.010;20.020;2022-09-13T02:44:08;98603.84;;;9.86;100.00
28008;BME280;15333;50.010;20.020;2022-09-13T02:47:33;98609.19;;;9.86;100.00
28008;BME280;15333;50.010;20.020;2022-09-13T02:50:51;98612.81;;;9.85;100.00
28008;BME280;15333;50.010;20.020;2022-09-13T02:54:06;98608.81;;;9.79;100.00
28008;BME280;15333;50.010;20.020;2022-09-13T02:57:25;98600.88;;;9.77;100.00
28008;BME280;15333;50.010;20.020;2022-09-13T03:00:32;98600.25;;;9.74;100.00
28008;BME280;15333;50.010;20.020;2022-09-13T03:03:33;98600.50;;;9.71;100.00
28008;BME280;15333;50.010;20.020;2022-09-13T03:06:33;98596.97;;;9.70;100.00
28008;BME280;15333;50.010;20.020;2022-09-13T03:09:34;98589.41;;;9.64;100.00
28008;BME280;15333;50.010;20.020;2022-09-13T03:26:11;98574.28;;;9.52;100.00
28008;BME280;15333;50.010;20.020;2022-09-13T03:29:40;98571.38;;;9.44;100.00
28008;BME280;15333;50.010;20.020;2022-09-13T03:33:03;98564.53;;;9.40;100.00
28008;BME280;15333;50.010;20.020;2022-09-13T03:36:16;98571.53;;;9.30;100.00
28008;BME280;15333;50.010;20.020;2022-09-13T03:42:51;98564.41;;;9.18;100.00
28008;BME280;15333;50.010;20.020;2022-09-13T03:45:58;98561.69;;;9.07;100.00
28008;BME280;15333;50.010;20.020;2022-09-13T03:49:05;98568.44;;;8.99;100.00
28008;BME280;15333;50.010;20.020;2022-09-13T03:52:07;98570.28;;;8.86;100.00
28008;BME280;15333;50.010;20.020;2022-09-13T03:55:08;98564.94;;;8.86;100.00
28008;BME280;15333;50.010;20.020;2022-09-13T03:58:14;98562.84;;;9.02;100.00
28008;BME280;15333;50.010;20.020;2022-09-13T04:01:21;98573.25;;;8.94;100.00
28008;BME280;15333;50.010;20.020;2022-09-13T04:04:22;98565.97;;;8.96;100.00
28008;BME280;15333;50.010;20.020;2022-09-13T04:07:24;98572.72;;;8.89;100.00
28008;BME280;15333;50.010;20.020;2022-09-13T04:10:24;98573.91;;;8.85;100.00
28008;BME280;15333;50.010;20.020;2022-09-13T04:13:26;98569.59;;;8.95;100.00
28008;BME280;15333;50.010;20.020;2022-09-13T04:16:26;98575.19;;;8.92;100.00
28008;BME280;15333;50.010;20.020;2022-09-13T04:19:28;98566.16;;;9.06;100.00
28008;BME280;15333;50.010;20.020;2022-09-13T04:22:28;98566.78;;;9.10;100.00
28008;BME280;15333;50.010;20.020;2022-09-13T04:25:29;98568.38;;;9.12;100.00
28008;BME280;15333;50.010;20.020;2022-09-13T04:28:30;98557.34;;;9.17;100.00
28008;BME280;15333;50.010;20.020;2022-09-13T04:31:31;98556.19;;;9.45;100.00
28008;BME280;15333;50.010;20.020;2022-09-13T04:34:32;98554.72;;;9.75;100.00
28008;BME280;15333;50.010;20.020;2022-09-13T04:37:33;98546.75;;;9.98;100.00
28008;BME280;15333;50.010;20.020;2022-09-13T04:40:34;98545.50;;;10.26;100.00
28008;BME280;15333;50.010;20.020;2022-09-13T04:43:36;98542.44;;;11.08;100.00
28008;BME280;15333;50.010;20.020;2022-09-13T04:46:37;98538.31;;;11.68;99.88
28008;BME280;15333;50.010;20.020;2022-09-13T04:49:38;98540.16;;;12.30;93.97
28008;BME280;15333;50.010;20.020;2022-09-13T04:52:39;98537.13;;;12.44;92.35
28008;BME280;15333;50.010;20.020;2022-09-13T04:55:40;98540.47;;;12.57;91.41
28008;BME280;15333;50.010;20.020;2022-09-13T04:58:41;98548.88;;;12.01;94.09
28008;BME280;15333;50.010;20.020;2022-09-13T05:01:42;98544.16;;;11.41;98.41
28008;BME280;15333;50.010;20.020;2022-09-13T05:04:43;98539.56;;;10.78;100.00
28008;BME280;15333;50.010;20.020;2022-09-13T05:07:44;98544.66;;;10.81;100.00
28008;BME280;15333;50.010;20.020;2022-09-13T05:10:45;98549.78;;;10.73;100.00
28008;BME280;15333;50.010;20.020;2022-09-13T05:13:56;98544.41;;;10.84;100.00
28008;BME280;15333;50.010;20.020;2022-09-13T05:16:57;98534.91;;;10.91;100.00
28008;BME280;15333;50.010;20.020;2022-09-13T05:19:58;98532.69;;;10.96;100.00
28008;BME280;15333;50.010;20.020;2022-09-13T05:22:59;98546.69;;;10.88;100.00
28008;BME280;15333;50.010;20.020;2022-09-13T05:26:02;98541.22;;;10.90;100.00
28008;BME280;15333;50.010;20.020;2022-09-13T05:29:03;98542.59;;;10.84;100.00
28008;BME280;15333;50.010;20.020;2022-09-13T05:32:04;98554.13;;;10.96;100.00
28008;BME280;15333;50.010;20.020;2022-09-13T05:35:05;98550.75;;;10.94;100.00
28008;BME280;15333;50.010;20.020;2022-09-13T05:38:06;98549.97;;;11.03;100.00
28008;BME280;15333;50.010;20.020;2022-09-13T05:41:07;98546.81;;;10.98;100.00
28008;BME280;15333;50.010;20.020;2022-09-13T05:44:08;98552.38;;;11.17;100.00
28008;BME280;15333;50.010;20.020;2022-09-13T05:47:09;98555.28;;;11.25;100.00
28008;BME280;15333;50.010;20.020;2022-09-13T05:50:10;98562.53;;;11.46;100.00
28008;BME280;15333;50.010;20.020;2022-09-13T05:53:10;98565.88;;;11.59;100.00
28008;BME280;15333;50.010;20.020;2022-09-13T05:56:20;98569.50;;;11.69;100.00
28008;BME280;15333;50.010;20.020;2022-09-13T05:59:21;98565.94;;;11.80;99.20
28008;BME280;15333;50.010;20.020;2022-09-13T06:02:22;98564.91;;;11.60;99.30
28008;BME280;15333;50.010;20.020;2022-09-13T06:05:22;98570.88;;;11.63;98.93
28008;BME280;15333;50.010;20.020;2022-09-13T06:08:25;98563.91;;;11.72;97.49
28008;BME280;15333;50.010;20.020;2022-09-13T06:11:27;98562.31;;;11.37;98.03
28008;BME280;15333;50.010;20.020;2022-09-13T06:14:28;98563.72;;;11.53;97.97
28008;BME280;15333;50.010;20.020;2022-09-13T06:17:28;98564.84;;;11.82;96.33
28008;BME280;15333;50.010;20.020;2022-09-13T06:20:29;98566.97;;;11.99;96.80
28008;BME280;15333;50.010;20.020;2022-09-13T06:23:30;98562.25;;;12.12;95.40
28008;BME280;15333;50.010;20.020;2022-09-13T06:26:31;98563.16;;;12.23;94.45
28008;BME280;15333;50.010;20.020;2022-09-13T06:29:32;98574.47;;;12.26;93.29
28008;BME280;15333;50.010;20.020;2022-09-13T06:32:34;98573.50;;;12.27;94.72
28008;BME280;15333;50.010;20.020;2022-09-13T06:35:35;98579.59;;;12.60;92.41
28008;BME280;15333;50.010;20.020;2022-09-13T06:38:38;98572.47;;;12.70;92.32
28008;BME280;15333;50.010;20.020;2022-09-13T06:41:38;98580.03;;;12.85;91.32
28008;BME280;15333;50.010;20.020;2022-09-13T06:44:39;98578.13;;;13.07;91.57
28008;BME280;15333;50.010;20.020;2022-09-13T06:47:40;98574.06;;;13.22;89.82
28008;BME280;15333;50.010;20.020;2022-09-13T06:50:41;98572.91;;;13.15;90.26
28008;BME280;15333;50.010;20.020;2022-09-13T06:53:43;98571.53;;;13.30;89.62
28008;BME280;15333;50.010;20.020;2022-09-13T06:56:44;98570.75;;;13.49;88.78
28008;BME280;15333;50.010;20.020;2022-09-13T06:59:45;98571.00;;;13.36;88.24
28008;BME280;15333;50.010;20.020;2022-09-13T07:02:50;98570.44;;;13.32;89.40
28008;BME280;15333;50.010;20.020;2022-09-13T07:05:51;98581.53;;;13.68;88.93
28008;BME280;15333;50.010;20.020;2022-09-13T07:08:53;98573.72;;;13.75;87.75
28008;BME280;15333;50.010;20.020;2022-09-13T07:11:55;98570.31;;;14.01;85.75
28008;BME280;15333;50.010;20.020;2022-09-13T07:14:56;98570.47;;;14.00;84.87
28008;BME280;15333;50.010;20.020;2022-09-13T07:17:56;98573.84;;;14.21;85.40
28008;BME280;15333;50.010;20.020;2022-09-13T07:20:59;98574.97;;;14.47;83.64
28008;BME280;15333;50.010;20.020;2022-09-13T07:24:01;98570.84;;;14.53;84.29
28008;BME280;15333;50.010;20.020;2022-09-13T07:27:02;98570.44;;;14.85;82.29
28008;BME280;15333;50.010;20.020;2022-09-13T07:30:03;98568.81;;;15.02;81.14
28008;BME280;15333;50.010;20.020;2022-09-13T07:33:04;98558.88;;;15.02;80.41
28008;BME280;15333;50.010;20.020;2022-09-13T07:36:06;98560.66;;;15.39;80.18
28008;BME280;15333;50.010;20.020;2022-09-13T07:39:08;98561.88;;;15.26;79.22
28008;BME280;15333;50.010;20.020;2022-09-13T07:42:08;98554.84;;;15.61;77.83
28008;BME280;15333;50.010;20.020;2022-09-13T07:45:10;98550.63;;;15.76;78.08
28008;BME280;15333;50.010;20.020;2022-09-13T07:48:12;98557.47;;;15.53;77.71
28008;BME280;15333;50.010;20.020;2022-09-13T07:51:18;98554.84;;;15.61;78.13
28008;BME280;15333;50.010;20.020;2022-09-13T07:54:20;98561.00;;;15.71;77.76
28008;BME280;15333;50.010;20.020;2022-09-13T07:57:23;98561.31;;;15.86;77.00
28008;BME280;15333;50.010;20.020;2022-09-13T08:00:24;98560.63;;;16.01;77.27
28008;BME280;15333;50.010;20.020;2022-09-13T08:03:25;98565.31;;;15.99;76.36
28008;BME280;15333;50.010;20.020;2022-09-13T08:06:28;98562.75;;;16.16;75.30
28008;BME280;15333;50.010;20.020;2022-09-13T08:09:29;98561.25;;;16.39;74.36
28008;BME280;15333;50.010;20.020;2022-09-13T08:12:30;98564.53;;;16.25;73.83
28008;BME280;15333;50.010;20.020;2022-09-13T08:15:32;98554.59;;;16.08;74.65
28008;BME280;15333;50.010;20.020;2022-09-13T08:18:32;98553.53;;;16.18;74.32
28008;BME280;15333;50.010;20.020;2022-09-13T08:21:35;98546.50;;;16.08;74.11
28008;BME280;15333;50.010;20.020;2022-09-13T08:24:36;98548.13;;;16.18;73.68
28008;BME280;15333;50.010;20.020;2022-09-13T08:27:37;98536.03;;;16.04;73.21
28008;BME280;15333;50.010;20.020;2022-09-13T08:30:38;98530.00;;;16.11;74.07
28008;BME280;15333;50.010;20.020;2022-09-13T08:33:42;98532.88;;;15.91;74.86
28008;BME280;15333;50.010;20.020;2022-09-13T08:36:44;98537.41;;;16.09;74.16
28008;BME280;15333;50.010;20.020;2022-09-13T08:39:45;98537.41;;;16.09;72.85
28008;BME280;15333;50.010;20.020;2022-09-13T08:43:20;98534.84;;;16.25;72.66
28008;BME280;15333;50.010;20.020;2022-09-13T08:46:32;98524.28;;;16.39;72.98
28008;BME280;15333;50.010;20.020;2022-09-13T08:49:39;98529.97;;;16.54;70.15
28008;BME280;15333;50.010;20.020;2022-09-13T08:56:15;98519.69;;;16.92;70.47
28008;BME280;15333;50.010;20.020;2022-09-13T09:06:14;98527.66;;;16.93;67.34
28008;BME280;15333;50.010;20.020;2022-09-13T09:09:18;98516.06;;;17.09;66.71
28008;BME280;15333;50.010;20.020;2022-09-13T09:12:44;98514.06;;;17.27;66.86
28008;BME280;15333;50.010;20.020;2022-09-13T09:15:49;98515.09;;;17.34;65.17
28008;BME280;15333;50.010;20.020;2022-09-13T09:18:54;98508.03;;;17.49;64.72
28008;BME280;15333;50.010;20.020;2022-09-13T09:22:01;98511.19;;;17.95;63.15
28008;BME280;15333;50.010;20.020;2022-09-13T09:25:04;98503.22;;;18.10;62.36
28008;BME280;15333;50.010;20.020;2022-09-13T09:28:14;98499.09;;;18.46;61.06
28008;BME280;15333;50.010;20.020;2022-09-13T09:31:19;98502.66;;;18.47;59.20
28008;BME280;15333;50.010;20.020;2022-09-13T09:34:39;98485.88;;;18.59;58.83
28008;BME280;15333;50.010;20.020;2022-09-13T09:37:52;98487.97;;;18.25;59.88
28008;BME280;15333;50.010;20.020;2022-09-13T09:41:05;98490.47;;;18.34;59.95
28008;BME280;15333;50.010;20.020;2022-09-13T09:44:27;98488.56;;;18.51;58.95
28008;BME280;15333;50.010;20.020;2022-09-13T09:47:51;98482.28;;;18.75;58.66
28008;BME280;15333;50.010;20.020;2022-09-13T09:50:55;98486.22;;;18.56;58.91
28008;BME280;15333;50.010;20.020;2022-09-13T09:54:02;98481.88;;;18.86;57.85
28008;BME280;15333;50.010;20.020;2022-09-13T09:57:06;98485.50;;;19.09;58.23
28008;BME280;15333;50.010;20.020;2022-09-13T10:00:11;98477.84;;;19.44;57.88
28008;BME280;15333;50.010;20.020;2022-09-13T10:03:17;98480.09;;;19.09;58.07
28008;BME280;15333;50.010;20.020;2022-09-13T10:06:21;98472.81;;;19.33;58.29
28008;BME280;15333;50.010;20.020;2022-09-13T10:09:22;98468.38;;;19.09;57.97
28008;BME280;15333;50.010;20.020;2022-09-13T10:12:28;98455.34;;;18.73;59.18
28008;BME280;15333;50.010;20.020;2022-09-13T10:15:33;98452.25;;;19.46;58.17
28008;BME280;15333;50.010;20.020;2022-09-13T10:18:36;98456.69;;;19.62;57.63
28008;BME280;15333;50.010;20.020;2022-09-13T10:21:37;98453.41;;;19.89;57.19
28008;BME280;15333;50.010;20.020;2022-09-13T10:24:38;98448.38;;;19.86;57.14
28008;BME280;15333;50.010;20.020;2022-09-13T10:27:42;98449.88;;;19.89;55.70
28008;BME280;15333;50.010;20.020;2022-09-13T10:30:53;98441.28;;;20.00;55.75
28008;BME280;15333;50.010;20.020;2022-09-13T10:34:04;98447.50;;;20.09;55.50
28008;BME280;15333;50.010;20.020;2022-09-13T10:37:15;98440.72;;;20.42;54.27
28008;BME280;15333;50.010;20.020;2022-09-13T10:40:28;98442.94;;;20.68;54.61
28008;BME280;15333;50.010;20.020;2022-09-13T10:43:31;98443.06;;;20.75;53.07
28008;BME280;15333;50.010;20.020;2022-09-13T10:46:35;98441.47;;;20.51;52.61
28008;BME280;15333;50.010;20.020;2022-09-13T10:49:52;98433.47;;;20.79;50.80
28008;BME280;15333;50.010;20.020;2022-09-13T10:52:56;98437.28;;;20.99;51.74
28008;BME280;15333;50.010;20.020;2022-09-13T10:55:58;98430.69;;;20.57;53.85
28008;BME280;15333;50.010;20.020;2022-09-13T10:59:28;98434.38;;;20.27;52.88
28008;BME280;15333;50.010;20.020;2022-09-13T11:09:15;98424.09;;;20.22;53.64
28008;BME280;15333;50.010;20.020;2022-09-13T11:12:23;98424.50;;;20.34;54.25
28008;BME280;15333;50.010;20.020;2022-09-13T11:15:58;98418.69;;;20.37;51.91
28008;BME280;15333;50.010;20.020;2022-09-13T11:19:30;98409.38;;;20.17;51.12
28008;BME280;15333;50.010;20.020;2022-09-13T11:29:49;98406.50;;;20.48;51.57
28008;BME280;15333;50.010;20.020;2022-09-13T11:42:40;98387.50;;;20.25;51.76
28008;BME280;15333;50.010;20.020;2022-09-13T11:52:32;98373.94;;;20.10;50.37
28008;BME280;15333;50.010;20.020;2022-09-13T11:55:41;98377.91;;;19.70;51.15
28008;BME280;15333;50.010;20.020;2022-09-13T11:58:50;98373.34;;;19.48;53.04
28008;BME280;15333;50.010;20.020;2022-09-13T12:02:03;98371.91;;;19.60;52.04
28008;BME280;15333;50.010;20.020;2022-09-13T12:05:18;98357.72;;;19.50;50.03
28008;BME280;15333;50.010;20.020;2022-09-13T12:09:16;98359.16;;;19.75;50.99
28008;BME280;15333;50.010;20.020;2022-09-13T12:12:21;98350.31;;;19.96;50.34
28008;BME280;15333;50.010;20.020;2022-09-13T12:15:38;98344.22;;;19.79;49.26
28008;BME280;15333;50.010;20.020;2022-09-13T12:18:43;98328.31;;;20.06;50.18
28008;BME280;15333;50.010;20.020;2022-09-13T12:21:47;98324.19;;;20.10;49.21
28008;BME280;15333;50.010;20.020;2022-09-13T12:24:54;98317.91;;;20.09;48.51
28008;BME280;15333;50.010;20.020;2022-09-13T12:28:10;98318.38;;;20.13;50.18
28008;BME280;15333;50.010;20.020;2022-09-13T12:31:19;98302.72;;;20.29;49.46
28008;BME280;15333;50.010;20.020;2022-09-13T12:34:27;98297.56;;;19.90;49.47
28008;BME280;15333;50.010;20.020;2022-09-13T12:41:05;98284.63;;;20.51;49.70
28008;BME280;15333;50.010;20.020;2022-09-13T12:57:21;98259.56;;;20.56;47.59
28008;BME280;15333;50.010;20.020;2022-09-13T13:00:28;98273.59;;;20.38;46.89
28008;BME280;15333;50.010;20.020;2022-09-13T13:03:35;98275.91;;;20.41;46.93
28008;BME280;15333;50.010;20.020;2022-09-13T13:09:54;98279.47;;;20.42;47.52
28008;BME280;15333;50.010;20.020;2022-09-13T13:13:09;98271.28;;;20.56;47.37
28008;BME280;15333;50.010;20.020;2022-09-13T13:16:35;98260.25;;;20.43;48.86
28008;BME280;15333;50.010;20.020;2022-09-13T13:19:37;98264.16;;;20.55;48.80
28008;BME280;15333;50.010;20.020;2022-09-13T13:32:24;98255.41;;;20.75;48.50
28008;BME280;15333;50.010;20.020;2022-09-13T13:35:28;98246.97;;;20.33;49.26
28008;BME280;15333;50.010;20.020;2022-09-13T13:38:45;98246.78;;;20.35;48.58
28008;BME280;15333;50.010;20.020;2022-09-13T13:41:57;98246.84;;;20.78;49.54
28008;BME280;15333;50.010;20.020;2022-09-13T13:48:12;98252.69;;;20.75;47.95
28008;BME280;15333;50.010;20.020;2022-09-13T13:51:23;98249.19;;;20.81;47.89
28008;BME280;15333;50.010;20.020;2022-09-13T13:54:29;98238.91;;;20.83;48.78
28008;BME280;15333;50.010;20.020;2022-09-13T13:57:42;98234.50;;;20.60;48.92
28008;BME280;15333;50.010;20.020;2022-09-13T14:00:51;98222.81;;;20.60;49.31
28008;BME280;15333;50.010;20.020;2022-09-13T14:25:32;98198.59;;;21.35;46.22
28008;BME280;15333;50.010;20.020;2022-09-13T14:28:33;98193.63;;;21.18;47.13
28008;BME280;15333;50.010;20.020;2022-09-13T14:31:35;98202.03;;;21.16;46.62
28008;BME280;15333;50.010;20.020;2022-09-13T14:34:37;98198.09;;;21.04;47.36
28008;BME280;15333;50.010;20.020;2022-09-13T14:37:43;98186.31;;;20.97;47.74
28008;BME280;15333;50.010;20.020;2022-09-13T14:40:49;98179.34;;;20.88;48.37
28008;BME280;15333;50.010;20.020;2022-09-13T14:43:50;98178.19;;;20.76;47.58
28008;BME280;15333;50.010;20.020;2022-09-13T14:47:07;98177.16;;;20.55;47.02
28008;BME280;15333;50.010;20.020;2022-09-13T14:50:14;98180.84;;;20.48;48.08
28008;BME280;15333;50.010;20.020;2022-09-13T14:53:23;98171.66;;;20.49;48.79
28008;BME280;15333;50.010;20.020;2022-09-13T14:56:34;98179.00;;;20.33;48.93
28008;BME280;15333;50.010;20.020;2022-09-13T14:59:43;98180.59;;;20.28;49.33
28008;BME280;15333;50.010;20.020;2022-09-13T15:02:51;98174.63;;;20.18;50.46
28008;BME280;15333;50.010;20.020;2022-09-13T15:05:59;98178.91;;;20.27;50.64
28008;BME280;15333;50.010;20.020;2022-09-13T15:09:14;98177.50;;;20.31;51.04
28008;BME280;15333;50.010;20.020;2022-09-13T15:12:25;98187.19;;;20.19;51.58
28008;BME280;15333;50.010;20.020;2022-09-13T15:18:39;98178.44;;;19.87;53.29
28008;BME280;15333;50.010;20.020;2022-09-13T15:21:40;98174.41;;;19.83;52.56
28008;BME280;15333;50.010;20.020;2022-09-13T15:24:50;98180.53;;;19.71;53.83
28008;BME280;15333;50.010;20.020;2022-09-13T15:27:55;98184.34;;;19.62;53.94
28008;BME280;15333;50.010;20.020;2022-09-13T15:30:58;98175.19;;;19.48;54.29
28008;BME280;15333;50.010;20.020;2022-09-13T15:37:28;98175.63;;;19.37;56.15
28008;BME280;15333;50.010;20.020;2022-09-13T15:40:29;98172.41;;;19.18;57.81
28008;BME280;15333;50.010;20.020;2022-09-13T15:43:40;98172.84;;;18.93;58.43
28008;BME280;15333;50.010;20.020;2022-09-13T15:46:47;98171.78;;;18.79;59.44
28008;BME280;15333;50.010;20.020;2022-09-13T15:49:49;98171.50;;;18.74;60.37
28008;BME280;15333;50.010;20.020;2022-09-13T15:52:53;98177.00;;;18.66;61.20
28008;BME280;15333;50.010;20.020;2022-09-13T15:55:54;98172.03;;;18.47;61.39
28008;BME280;15333;50.010;20.020;2022-09-13T15:58:55;98178.16;;;18.40;61.70
28008;BME280;15333;50.010;20.020;2022-09-13T16:01:56;98174.44;;;18.42;62.00
28008;BME280;15333;50.010;20.020;2022-09-13T16:04:57;98170.81;;;18.26;62.55
28008;BME280;15333;50.010;20.020;2022-09-13T16:07:58;98177.31;;;18.17;62.92
28008;BME280;15333;50.010;20.020;2022-09-13T16:10:58;98166.47;;;18.17;63.04
28008;BME280;15333;50.010;20.020;2022-09-13T16:13:59;98164.84;;;18.08;63.08
28008;BME280;15333;50.010;20.020;2022-09-13T16:17:10;98157.44;;;18.02;63.89
28008;BME280;15333;50.010;20.020;2022-09-13T16:20:13;98164.88;;;18.00;63.99
28008;BME280;15333;50.010;20.020;2022-09-13T16:23:14;98159.34;;;17.93;65.16
28008;BME280;15333;50.010;20.020;2022-09-13T16:26:15;98163.31;;;17.83;65.18
28008;BME280;15333;50.010;20.020;2022-09-13T16:29:16;98165.69;;;17.78;65.91
28008;BME280;15333;50.010;20.020;2022-09-13T16:32:17;98163.50;;;17.73;66.03
28008;BME280;15333;50.010;20.020;2022-09-13T16:35:18;98163.00;;;17.70;65.86
28008;BME280;15333;50.010;20.020;2022-09-13T16:38:19;98168.06;;;17.73;67.09
28008;BME280;15333;50.010;20.020;2022-09-13T16:41:19;98171.19;;;17.62;67.01
28008;BME280;15333;50.010;20.020;2022-09-13T16:44:20;98169.78;;;17.57;66.88
28008;BME280;15333;50.010;20.020;2022-09-13T16:47:21;98171.47;;;17.58;67.21
28008;BME280;15333;50.010;20.020;2022-09-13T16:50:23;98173.88;;;17.53;67.19
28008;BME280;15333;50.010;20.020;2022-09-13T16:53:24;98171.34;;;17.52;67.34
28008;BME280;15333;50.010;20.020;2022-09-13T16:56:25;98169.16;;;17.47;67.62
28008;BME280;15333;50.010;20.020;2022-09-13T16:59:26;98167.09;;;17.57;67.46
28008;BME280;15333;50.010;20.020;2022-09-13T17:02:27;98163.53;;;17.57;67.35
28008;BME280;15333;50.010;20.020;2022-09-13T17:05:28;98165.94;;;17.52;66.87
28008;BME280;15333;50.010;20.020;2022-09-13T17:08:30;98167.47;;;17.46;67.17
28008;BME280;15333;50.010;20.020;2022-09-13T17:11:34;98163.94;;;17.38;67.58
28008;BME280;15333;50.010;20.020;2022-09-13T17:14:36;98164.13;;;17.28;68.46
28008;BME280;15333;50.010;20.020;2022-09-13T17:17:37;98158.09;;;17.18;68.93
28008;BME280;15333;50.010;20.020;2022-09-13T17:20:43;98155.03;;;17.13;68.36
28008;BME280;15333;50.010;20.020;2022-09-13T17:23:45;98160.50;;;17.05;68.62
28008;BME280;15333;50.010;20.020;2022-09-13T17:26:46;98166.91;;;17.04;68.18
28008;BME280;15333;50.010;20.020;2022-09-13T17:29:46;98157.44;;;17.00;67.98
28008;BME280;15333;50.010;20.020;2022-09-13T17:32:47;98159.47;;;17.06;67.87
28008;BME280;15333;50.010;20.020;2022-09-13T17:36:00;98158.59;;;17.05;67.86
28008;BME280;15333;50.010;20.020;2022-09-13T17:39:01;98156.75;;;17.06;68.37
28008;BME280;15333;50.010;20.020;2022-09-13T17:42:02;98156.59;;;16.99;68.99
28008;BME280;15333;50.010;20.020;2022-09-13T17:45:04;98154.25;;;16.96;69.42
28008;BME280;15333;50.010;20.020;2022-09-13T17:48:05;98152.91;;;16.92;70.24
28008;BME280;15333;50.010;20.020;2022-09-13T17:51:13;98148.00;;;16.96;69.85
28008;BME280;15333;50.010;20.020;2022-09-13T17:54:14;98145.94;;;17.06;69.60
28008;BME280;15333;50.010;20.020;2022-09-13T17:57:15;98139.53;;;17.07;69.18
28008;BME280;15333;50.010;20.020;2022-09-13T18:00:16;98140.53;;;17.06;69.36
28008;BME280;15333;50.010;20.020;2022-09-13T18:03:19;98139.19;;;17.10;69.75
28008;BME280;15333;50.010;20.020;2022-09-13T18:06:20;98141.56;;;17.05;69.94
28008;BME280;15333;50.010;20.020;2022-09-13T18:09:21;98144.94;;;17.07;70.22
28008;BME280;15333;50.010;20.020;2022-09-13T18:12:22;98148.31;;;17.09;70.51
28008;BME280;15333;50.010;20.020;2022-09-13T18:15:23;98141.03;;;17.09;70.67
28008;BME280;15333;50.010;20.020;2022-09-13T18:18:24;98138.53;;;17.00;71.06
28008;BME280;15333;50.010;20.020;2022-09-13T18:21:25;98133.78;;;17.10;71.06